Ocean Banquet — VRQO2 — position and weather

sailwx.info

Track history (hours):
 
Tides and Currents Weather Stations Pressure Air Temp Water Temp Dewpoint Dewpoint Depression Visibility Wind Speed Wind Dir Waves Ship Positions

Ocean Banquet

Last reported at 2018-Jun-12 01:52 UTC. Time now 2018-Jun-18 23:17 UTC.
Position N 01°17' E 103°23'.

Length 199 m; draft 9.2 m.

Type: Cargo ship. MMSI: 477234300.

Date/timePositionNaut miles runAvg speedWind from/ knotsBaromVisibWave heightAir tempDewpointWater temp
2018-Jun-12 01:52N 01°17' E 103°23'411.4
2018-Jun-12 01:30N 01°14' E 103°26'511.1
2018-Jun-12 01:00N 01°12' E 103°31'612.3
2018-Jun-12 00:30N 01°11' E 103°38'613.0
2018-Jun-12 00:00N 01°09' E 103°43'611.4
2018-Jun-11 23:30N 01°11' E 103°49'612.9
2018-Jun-11 23:00N 01°14' E 103°54'3 6.9
2018-Jun-11 22:30N 01°16' E 103°57'1 2.4
2018-Jun-11 21:59N 01°17' E 103°56'0 0.2
2018-Jun-11 21:29N 01°17' E 103°56'0 0.1
2018-Jun-11 20:56N 01°17' E 103°56'0 0.1
2018-Jun-11 20:27N 01°17' E 103°56'0 0.0
2018-Jun-11 19:57N 01°17' E 103°56'0 0.0
2018-Jun-11 19:26N 01°17' E 103°56'0 0.0
2018-Jun-11 18:59N 01°17' E 103°56'0 0.0
2018-Jun-11 18:27N 01°17' E 103°56'0 0.0
2018-Jun-11 17:59N 01°17' E 103°56'0 0.0
2018-Jun-11 17:30N 01°17' E 103°56'0 0.0
2018-Jun-11 16:56N 01°17' E 103°56'0 0.0
2018-Jun-11 16:29N 01°17' E 103°56'0 0.0
2018-Jun-11 15:59N 01°17' E 103°56'0 0.0
2018-Jun-11 15:29N 01°17' E 103°56'0 0.1
2018-Jun-11 14:56N 01°17' E 103°56'0 0.0
2018-Jun-11 14:29N 01°17' E 103°56'0 0.1
2018-Jun-11 13:56N 01°17' E 103°56'0 0.1
2018-Jun-11 13:29N 01°17' E 103°56'0 0.2
2018-Jun-11 12:59N 01°17' E 103°56'0 0.0
2018-Jun-11 12:29N 01°17' E 103°56'0 0.0
2018-Jun-11 11:59N 01°17' E 103°56'0 0.1
2018-Jun-11 11:21N 01°17' E 103°56'0 0.0
2018-Jun-11 10:53N 01°17' E 103°56'0 0.0
2018-Jun-11 10:23N 01°17' E 103°56'0 0.0
2018-Jun-11 09:58N 01°17' E 103°56'1 2.6
2018-Jun-11 09:30N 01°16' E 103°57'3 4.8
2018-Jun-11 08:57N 01°16' E 103°59'2 5.2
2018-Jun-11 08:31N 01°16' E 104°02'2 4.3
2018-Jun-11 07:58N 01°16' E 104°04'3 5.2
2018-Jun-11 07:29N 01°17' E 104°07'2 4.7
2018-Jun-11 06:59N 01°17' E 104°09'2 4.8
2018-Jun-11 06:29N 01°17' E 104°11'2 4.8
2018-Jun-11 05:59N 01°18' E 104°14'2 4.3
2018-Jun-11 05:30N 01°18' E 104°16'2 4.3
2018-Jun-11 04:58N 01°18' E 104°18'3 5.7
2018-Jun-11 04:29N 01°20' E 104°20'510.9
2018-Jun-11 03:59N 01°23' E 104°24'610.8
2018-Jun-11 03:29N 01°26' E 104°29'  
Track history (hours):
 
Tides and Currents Weather Stations Pressure Air Temp Water Temp Dewpoint Dewpoint Depression Visibility Wind Speed Wind Dir Waves Ship Positions

Ocean Banquet

Last reported at 2018-Jun-12 01:52 UTC. Time now 2018-Jun-18 23:17 UTC.
Position N 01°17' E 103°23'.

Length 199 m; draft 9.2 m.

Type: Cargo ship. MMSI: 477234300.

Date/timePositionNaut miles runAvg speedWind from/ knotsBaromVisibWave heightAir tempDewpointWater temp
2018-Jun-12 01:52N 01°17' E 103°23'411.4
2018-Jun-12 01:30N 01°14' E 103°26'511.1
2018-Jun-12 01:00N 01°12' E 103°31'612.3
2018-Jun-12 00:30N 01°11' E 103°38'613.0
2018-Jun-12 00:00N 01°09' E 103°43'611.4
2018-Jun-11 23:30N 01°11' E 103°49'612.9
2018-Jun-11 23:00N 01°14' E 103°54'3 6.9
2018-Jun-11 22:30N 01°16' E 103°57'1 2.4
2018-Jun-11 21:59N 01°17' E 103°56'0 0.2
2018-Jun-11 21:29N 01°17' E 103°56'0 0.1
2018-Jun-11 20:56N 01°17' E 103°56'0 0.1
2018-Jun-11 20:27N 01°17' E 103°56'0 0.0
2018-Jun-11 19:57N 01°17' E 103°56'0 0.0
2018-Jun-11 19:26N 01°17' E 103°56'0 0.0
2018-Jun-11 18:59N 01°17' E 103°56'0 0.0
2018-Jun-11 18:27N 01°17' E 103°56'0 0.0
2018-Jun-11 17:59N 01°17' E 103°56'0 0.0
2018-Jun-11 17:30N 01°17' E 103°56'0 0.0
2018-Jun-11 16:56N 01°17' E 103°56'0 0.0
2018-Jun-11 16:29N 01°17' E 103°56'0 0.0
2018-Jun-11 15:59N 01°17' E 103°56'0 0.0
2018-Jun-11 15:29N 01°17' E 103°56'0 0.1
2018-Jun-11 14:56N 01°17' E 103°56'0 0.0
2018-Jun-11 14:29N 01°17' E 103°56'0 0.1
2018-Jun-11 13:56N 01°17' E 103°56'0 0.1
2018-Jun-11 13:29N 01°17' E 103°56'0 0.2
2018-Jun-11 12:59N 01°17' E 103°56'0 0.0
2018-Jun-11 12:29N 01°17' E 103°56'0 0.0
2018-Jun-11 11:59N 01°17' E 103°56'0 0.1
2018-Jun-11 11:21N 01°17' E 103°56'0 0.0
2018-Jun-11 10:53N 01°17' E 103°56'0 0.0
2018-Jun-11 10:23N 01°17' E 103°56'0 0.0
2018-Jun-11 09:58N 01°17' E 103°56'1 2.6
2018-Jun-11 09:30N 01°16' E 103°57'3 4.8
2018-Jun-11 08:57N 01°16' E 103°59'2 5.2
2018-Jun-11 08:31N 01°16' E 104°02'2 4.3
2018-Jun-11 07:58N 01°16' E 104°04'3 5.2
2018-Jun-11 07:29N 01°17' E 104°07'2 4.7
2018-Jun-11 06:59N 01°17' E 104°09'2 4.8
2018-Jun-11 06:29N 01°17' E 104°11'2 4.8
2018-Jun-11 05:59N 01°18' E 104°14'2 4.3
2018-Jun-11 05:30N 01°18' E 104°16'2 4.3
2018-Jun-11 04:58N 01°18' E 104°18'3 5.7
2018-Jun-11 04:29N 01°20' E 104°20'510.9
2018-Jun-11 03:59N 01°23' E 104°24'610.8
2018-Jun-11 03:29N 01°26' E 104°29'  

Dump ship's entire track history